Home > Products > Valid Products > TAF

000
FTUS44 KFWD 281100
TAFACT
TAF
KACT 281126Z 2812/2912 19009KT P6SM FEW080
     FM281500 02010KT P6SM BKN070
     FM282000 03012KT P6SM VCTS SCT050CB
     FM290000 05008KT P6SM SCT100=



000
FTUS44 KFWD 281100
TAFDFW
TAF
KDFW 281126Z 2812/2918 02010KT P6SM BKN080
     FM281700 03012KT P6SM VCSH BKN050
     FM282100 06008KT P6SM SCT100=



000
FTUS44 KFWD 281100
TAFFTW
TAF
KFTW 281126Z 2812/2912 02010KT P6SM BKN080
     FM281700 03012KT P6SM VCSH BKN050
     FM282100 06008KT P6SM SCT100=



000
FTUS44 KFWD 281000 AAB
TAFFTW
TAF AMD
KFTW 281037Z 2811/2906 02010KT P6SM BKN080
     FM281700 03012KT P6SM VCSH BKN050
     FM282100 05008KT P6SM SCT100=



000
FTUS44 KFWD 281000 AAB
TAFDFW
TAF AMD
KDFW 281035Z 2811/2912 02010KT P6SM BKN090
     FM281700 03012KT P6SM VCSH BKN050
     FM282100 05008KT P6SM SCT100=



000
FTUS44 KFWD 280800 AAA
TAFFTW
TAF AMD
KFTW 280858Z 2809/2906 19011KT P6SM SCT080
     FM281200 02010KT P6SM BKN070
     FM281700 03012KT P6SM VCSH BKN050
     FM282100 05008KT P6SM SCT100=



000
FTUS44 KFWD 280800 AAA
TAFACT
TAF AMD
KACT 280858Z 2809/2906 19009KT P6SM FEW080
     FM281600 04010KT P6SM SCT070
     FM282000 03012KT P6SM VCSH SCT070
     FM290000 05008KT P6SM SCT100=



000
FTUS44 KFWD 280800 AAA
TAFDFW
TAF AMD
KDFW 280858Z 2809/2912 19011KT P6SM SCT090
     FM281200 02010KT P6SM BKN070
     FM281700 03012KT P6SM VCSH BKN050
     FM282100 05008KT P6SM SCT100=



000
FTUS44 KFWD 280500
TAFACT
TAF
KACT 280525Z 2806/2906 16009KT P6SM FEW080
     FM281600 04010KT P6SM SCT070
     FM282100 03012KT P6SM VCSH SCT080
     FM290000 05008KT P6SM SCT100=



000
FTUS44 KFWD 280500
TAFDFW
TAF
KDFW 280525Z 2806/2912 17011KT P6SM FEW090
     FM281200 02010KT P6SM BKN070
     FM281700 03012KT P6SM VCSH BKN070
     FM282100 05008KT P6SM SCT100=



000
FTUS44 KFWD 280500
TAFFTW
TAF
KFTW 280525Z 2806/2906 17011KT P6SM SCT080
     FM281200 02010KT P6SM BKN070
     FM281700 03012KT P6SM VCSH BKN070
     FM282100 05008KT P6SM SCT100=



000
FTUS44 KFWD 280500
TAFFTW
TAF
KFTW 280520Z 2806/2906 17011KT P6SM SCT080
     FM281200 02010KT P6SM BKN070
     FM281700 03012KT P6SM VCSH BKN070
     FM282100 05008KT P6SM SCT100=



000
FTUS44 KFWD 280500
TAFACT
TAF
KACT 280520Z 2806/2906 16009KT P6SM FEW080
     FM281600 04010KT P6SM SCT070
     FM282100 03012KT P6SM VCSH SCT080
     FM290000 05008KT P6SM SCT100=



000
FTUS44 KFWD 280500
TAFDFW
TAF
KDFW 280520Z 2806/2912 17011KT P6SM FEW090
     FM281200 02010KT P6SM BKN070
     FM281700 03012KT P6SM VCSH BKN070
     FM282100 05008KT P6SM SCT100=



000
FTUS44 KFWD 280300 AAA
TAFACT
TAF AMD
KACT 280303Z 2803/2824 16009KT P6SM FEW080
     FM281700 04010KT P6SM SCT070
     FM282100 03012KT P6SM VCTS BKN070CB=



000
FTUS44 KFWD 280300 AAA
TAFFTW
TAF AMD
KFTW 280303Z 2803/2824 17011KT P6SM SCT080
     FM281200 02010KT P6SM BKN070
     FM281700 03012KT P6SM VCTS BKN070CB
     FM282200 05008KT P6SM BKN100=



000
FTUS44 KFWD 280300 AAA
TAFDFW
TAF AMD
KDFW 280303Z 2803/2906 17011KT P6SM FEW090
     FM281200 02010KT P6SM BKN070
     FM281700 03012KT P6SM VCTS BKN070CB
     FM282200 05008KT P6SM BKN100=



000
FTUS44 KFWD 272300
TAFDFW
TAF
KDFW 272332Z 2800/2906 18009KT P6SM FEW090
     FM281400 02010KT P6SM BKN070
     FM281800 03012KT P6SM VCTS BKN070CB
     FM282200 05008KT P6SM BKN100=



000
FTUS44 KFWD 272300
TAFACT
TAF
KACT 272332Z 2800/2824 18009KT P6SM FEW080
     FM281800 04010KT P6SM SCT070
     FM282100 03012KT P6SM VCTS BKN070CB=



000
FTUS44 KFWD 272300
TAFFTW
TAF
KFTW 272332Z 2800/2824 18009KT P6SM SCT080
     FM281400 02010KT P6SM BKN070
     FM281800 03012KT P6SM VCTS BKN070CB
     FM282200 05008KT P6SM BKN100=



000
FTUS44 KFWD 272000 AAA
TAFACT
TAF AMD
KACT 272057Z 2721/2818 18009KT P6SM FEW080=



000
FTUS44 KFWD 272000 AAA
TAFFTW
TAF AMD
KFTW 272057Z 2721/2818 18009KT P6SM SCT080
     FM281400 02009KT P6SM BKN060=



000
FTUS44 KFWD 272000 AAA
TAFDFW
TAF AMD
KDFW 272057Z 2721/2824 18009KT P6SM SCT080
     FM281400 02009KT P6SM BKN060=



000
FTUS44 KFWD 271700
TAFACT
TAF
KACT 271725Z 2718/2818 19009KT P6SM FEW080=



000
FTUS44 KFWD 271700
TAFDFW
TAF
KDFW 271725Z 2718/2824 19009KT P6SM FEW080
     FM281400 02009KT P6SM BKN300=



000
FTUS44 KFWD 271700
TAFFTW
TAF
KFTW 271725Z 2718/2818 19009KT P6SM FEW080
     FM281400 02009KT P6SM BKN300=



000
FTUS44 KFWD 271500 AAA
TAFACT
TAF AMD
KACT 271504Z 2715/2812 19010KT P6SM FEW080=



000
FTUS44 KFWD 271500 AAA
TAFDFW
TAF AMD
KDFW 271504Z 2715/2818 19012KT P6SM FEW080
     FM281600 02010KT P6SM BKN300=



000
FTUS44 KFWD 271500 AAA
TAFFTW
TAF AMD
KFTW 271504Z 2715/2812 19010KT P6SM FEW080=



000
FTUS44 KFWD 271100
TAFDFW
TAF
KDFW 271129Z 2712/2818 19010KT P6SM FEW080
     FM281600 02010KT P6SM BKN300=



000
FTUS44 KFWD 271100
TAFFTW
TAF
KFTW 271129Z 2712/2812 19010KT P6SM FEW080=



000
FTUS44 KFWD 271100
TAFACT
TAF
KACT 271129Z 2712/2812 19010KT P6SM FEW080=



000
FTUS44 KFWD 270800 AAA
TAFACT
TAF AMD
KACT 270859Z 2709/2806 17010KT P6SM SKC=



000
FTUS44 KFWD 270800 AAA
TAFDFW
TAF AMD
KDFW 270859Z 2709/2812 17010KT P6SM SKC
     FM271500 21013KT P6SM FEW080
     FM280000 16008KT P6SM SCT250=



000
FTUS44 KFWD 270800 AAA
TAFFTW
TAF AMD
KFTW 270859Z 2709/2806 17010KT P6SM SKC
     FM271500 21013KT P6SM FEW070=



000
FTUS44 KFWD 270500
TAFDFW
TAF
KDFW 270520Z 2706/2812 17010KT P6SM SKC
     FM271500 21013KT P6SM FEW080
     FM280000 16008KT P6SM SCT250=



000
FTUS44 KFWD 270500
TAFACT
TAF
KACT 270520Z 2706/2806 17010KT P6SM SKC=



000
FTUS44 KFWD 270500
TAFFTW
TAF
KFTW 270520Z 2706/2806 17010KT P6SM SKC
     FM271500 21013KT P6SM FEW070=



000
FTUS44 KFWD 270300 AAB
TAFFTW
TAF AMD
KFTW 270306Z 2703/2724 17010KT P6SM SKC
     FM271500 21013KT P6SM FEW070=



000
FTUS44 KFWD 270300 AAB
TAFDFW
TAF AMD
KDFW 270306Z 2703/2806 17010KT P6SM SKC
     FM271500 21013KT P6SM FEW080
     FM280000 16008KT P6SM SCT250=



000
FTUS44 KFWD 270300 AAA
TAFACT
TAF AMD
KACT 270306Z 2703/2724 16010KT P6SM SKC=



000
FTUS44 KFWD 270100 AAA
TAFFTW
TAF AMD
KFTW 270145Z 2702/2724 17010KT P6SM SCT300
     FM271500 21013KT P6SM FEW070=



000
FTUS44 KFWD 270100 AAA
TAFDFW
TAF AMD
KDFW 270145Z 2702/2806 17010KT P6SM SCT300
     FM271500 21013KT P6SM FEW080
     FM280000 16008KT P6SM SCT250=



000
FTUS44 KFWD 262300
TAFACT
TAF
KACT 262321Z 2700/2724 17012KT P6SM FEW070=



000
FTUS44 KFWD 262300
TAFDFW
TAF
KDFW 262321Z 2700/2806 17010KT P6SM SCT300
     FM270100 21013KT P6SM FEW080
     FM280000 16008KT P6SM SCT250=



000
FTUS44 KFWD 262300
TAFFTW
TAF
KFTW 262321Z 2700/2724 17010KT P6SM SCT300
     FM270100 21013KT P6SM FEW070=



000
FTUS44 KFWD 262000 AAA
TAFACT
TAF AMD
KACT 262054Z 2621/2718 18012KT P6SM FEW070=



000
FTUS44 KFWD 262000 AAA
TAFDFW
TAF AMD
KDFW 262054Z 2621/2724 19012KT P6SM FEW070=



000
FTUS44 KFWD 262000 AAA
TAFFTW
TAF AMD
KFTW 262054Z 2621/2718 19012KT P6SM FEW070=



000
FTUS44 KFWD 261700
TAFACT
TAF
KACT 261720Z 2618/2718 18012KT P6SM FEW060=



000
FTUS44 KFWD 261700
TAFFTW
TAF
KFTW 261720Z 2618/2718 19012KT P6SM FEW060=



000
FTUS44 KFWD 261700
TAFDFW
TAF
KDFW 261720Z 2618/2724 19012KT P6SM FEW060=



000
FTUS44 KFWD 261500 AAA
TAFDFW
TAF AMD
KDFW 261504Z 2615/2718 19012KT P6SM FEW300=



000
FTUS44 KFWD 261500 AAA
TAFACT
TAF AMD
KACT 261504Z 2615/2712 19012KT P6SM FEW300=



000
FTUS44 KFWD 261500 AAA
TAFFTW
TAF AMD
KFTW 261504Z 2615/2712 19012KT P6SM FEW300=



000
FTUS44 KFWD 261100
TAFACT
TAF
KACT 261131Z 2612/2712 19012KT P6SM FEW300=



000
FTUS44 KFWD 261100
TAFFTW
TAF
KFTW 261131Z 2612/2712 19012KT P6SM SKC=



000
FTUS44 KFWD 261100
TAFDFW
TAF
KDFW 261131Z 2612/2718 19012KT P6SM SKC=



000
FTUS44 KFWD 260800 AAA
TAFACT
TAF AMD
KACT 260858Z 2609/2706 19010KT P6SM SKC=



000
FTUS44 KFWD 260800 AAA
TAFDFW
TAF AMD
KDFW 260858Z 2609/2712 19010KT P6SM SKC=



000
FTUS44 KFWD 260800 AAA
TAFFTW
TAF AMD
KFTW 260858Z 2609/2706 19010KT P6SM SKC=



000
FTUS44 KFWD 260500
TAFACT
TAF
KACT 260538Z 2606/2706 17010KT P6SM SCT050=



000
FTUS44 KFWD 260500
TAFFTW
TAF
KFTW 260538Z 2606/2706 17010KT P6SM FEW060=



000
FTUS44 KFWD 260500
TAFDFW
TAF
KDFW 260538Z 2606/2712 17010KT P6SM FEW060=



000
FTUS44 KFWD 260200 AAA
TAFFTW
TAF AMD
KFTW 260256Z 2603/2624 17010KT P6SM FEW060=



000
FTUS44 KFWD 260200 AAA
TAFACT
TAF AMD
KACT 260256Z 2603/2624 17010KT P6SM SCT050=



000
FTUS44 KFWD 260200 AAA
TAFDFW
TAF AMD
KDFW 260256Z 2603/2706 17010KT P6SM FEW060=



000
FTUS44 KFWD 252300
TAFACT
TAF
KACT 252320Z 2600/2624 18010KT P6SM SCT050=



000
FTUS44 KFWD 252300
TAFFTW
TAF
KFTW 252320Z 2600/2624 18010KT P6SM FEW060=



000
FTUS44 KFWD 252300
TAFDFW
TAF
KDFW 252320Z 2600/2706 18010KT P6SM FEW060=



000
FTUS44 KFWD 252000 AAA
TAFACT
TAF AMD
KACT 252052Z 2521/2618 18010KT P6SM SCT050=



000
FTUS44 KFWD 252000 AAA
TAFFTW
TAF AMD
KFTW 252052Z 2521/2618 18010KT P6SM FEW060=



000
FTUS44 KFWD 252000 AAA
TAFDFW
TAF AMD
KDFW 252052Z 2521/2624 18010KT P6SM FEW060=



000
FTUS44 KFWD 251700
TAFFTW
TAF
KFTW 251738Z 2518/2618 19010KT P6SM FEW060=



000
FTUS44 KFWD 251700
TAFACT
TAF
KACT 251738Z 2518/2618 19009KT P6SM SCT050=



000
FTUS44 KFWD 251700
TAFDFW
TAF
KDFW 251738Z 2518/2624 19010KT P6SM FEW060=



000
FTUS44 KFWD 251500 AAA
TAFFTW
TAF AMD
KFTW 251507Z 2515/2612 18007KT P6SM SKC=



000
FTUS44 KFWD 251500 AAA
TAFACT
TAF AMD
KACT 251507Z 2515/2612 18006KT P6SM SKC=



000
FTUS44 KFWD 251500 AAA
TAFDFW
TAF AMD
KDFW 251507Z 2515/2618 18007KT P6SM SKC=



    US Dept of Commerce
    National Oceanic and Atmospheric Administration
    National Weather Service
    1325 East West Highway
    Silver Spring, MD 20910
    Page Author: NWS Internet Services Team
Disclaimer
Information Quality
Credits
Glossary
Privacy Policy
Freedom of Information Act (FOIA)
About Us
Career Opportunities